sensor_id;sensor_type;location;lat;lon;timestamp;P1;durP1;ratioP1;P2;durP2;ratioP2
47113;SDS011;32867;51.556;6.832;2023-08-06T00:03:50;5.03;;;2.60;;
47113;SDS011;32867;51.556;6.832;2023-08-06T00:08:50;4.10;;;2.53;;
47113;SDS011;32867;51.556;6.832;2023-08-06T00:13:51;5.03;;;3.25;;
47113;SDS011;32867;51.556;6.832;2023-08-06T00:18:52;5.35;;;3.03;;
47113;SDS011;32867;51.556;6.832;2023-08-06T00:23:52;3.90;;;2.67;;
47113;SDS011;32867;51.556;6.832;2023-08-06T00:28:53;4.03;;;3.10;;
47113;SDS011;32867;51.556;6.832;2023-08-06T00:33:54;5.20;;;2.90;;
47113;SDS011;32867;51.556;6.832;2023-08-06T00:38:55;3.95;;;2.85;;
47113;SDS011;32867;51.556;6.832;2023-08-06T00:43:55;5.70;;;3.17;;
47113;SDS011;32867;51.556;6.832;2023-08-06T00:48:58;5.00;;;2.65;;
47113;SDS011;32867;51.556;6.832;2023-08-06T00:53:59;4.68;;;2.70;;
47113;SDS011;32867;51.556;6.832;2023-08-06T00:59:01;4.28;;;2.72;;
47113;SDS011;32867;51.556;6.832;2023-08-06T01:04:04;7.03;;;2.90;;
47113;SDS011;32867;51.556;6.832;2023-08-06T01:09:09;4.78;;;3.38;;
47113;SDS011;32867;51.556;6.832;2023-08-06T01:19:32;5.53;;;3.20;;
47113;SDS011;32867;51.556;6.832;2023-08-06T01:24:33;5.32;;;3.10;;
47113;SDS011;32867;51.556;6.832;2023-08-06T01:29:35;4.20;;;2.97;;
47113;SDS011;32867;51.556;6.832;2023-08-06T01:34:42;4.43;;;3.20;;
47113;SDS011;32867;51.556;6.832;2023-08-06T01:39:45;6.85;;;3.63;;
47113;SDS011;32867;51.556;6.832;2023-08-06T01:44:47;4.35;;;2.97;;
47113;SDS011;32867;51.556;6.832;2023-08-06T01:49:47;8.40;;;3.58;;
47113;SDS011;32867;51.556;6.832;2023-08-06T01:54:48;7.30;;;3.30;;
47113;SDS011;32867;51.556;6.832;2023-08-06T01:59:49;4.07;;;2.97;;
47113;SDS011;32867;51.556;6.832;2023-08-06T02:04:51;3.60;;;2.83;;
47113;SDS011;32867;51.556;6.832;2023-08-06T02:09:52;5.65;;;2.90;;
47113;SDS011;32867;51.556;6.832;2023-08-06T02:14:54;5.50;;;2.92;;
47113;SDS011;32867;51.556;6.832;2023-08-06T02:19:54;7.40;;;3.08;;
47113;SDS011;32867;51.556;6.832;2023-08-06T02:24:55;4.20;;;3.05;;
47113;SDS011;32867;51.556;6.832;2023-08-06T02:29:57;6.53;;;3.30;;
47113;SDS011;32867;51.556;6.832;2023-08-06T02:34:58;3.97;;;2.25;;
47113;SDS011;32867;51.556;6.832;2023-08-06T02:39:58;4.72;;;2.90;;
47113;SDS011;32867;51.556;6.832;2023-08-06T02:44:59;4.05;;;2.70;;
47113;SDS011;32867;51.556;6.832;2023-08-06T02:50:00;3.90;;;2.45;;
47113;SDS011;32867;51.556;6.832;2023-08-06T02:55:01;4.97;;;2.60;;
47113;SDS011;32867;51.556;6.832;2023-08-06T03:00:06;3.67;;;2.63;;
47113;SDS011;32867;51.556;6.832;2023-08-06T03:05:07;5.22;;;2.90;;
47113;SDS011;32867;51.556;6.832;2023-08-06T03:10:13;3.40;;;2.72;;
47113;SDS011;32867;51.556;6.832;2023-08-06T03:15:17;4.70;;;3.15;;
47113;SDS011;32867;51.556;6.832;2023-08-06T03:20:19;3.67;;;2.55;;
47113;SDS011;32867;51.556;6.832;2023-08-06T03:25:22;3.10;;;2.30;;
47113;SDS011;32867;51.556;6.832;2023-08-06T03:30:24;3.95;;;2.55;;
47113;SDS011;32867;51.556;6.832;2023-08-06T03:35:28;4.70;;;2.20;;
47113;SDS011;32867;51.556;6.832;2023-08-06T03:40:29;4.32;;;2.40;;
47113;SDS011;32867;51.556;6.832;2023-08-06T03:45:32;3.72;;;2.45;;
47113;SDS011;32867;51.556;6.832;2023-08-06T03:50:33;2.90;;;1.98;;
47113;SDS011;32867;51.556;6.832;2023-08-06T03:55:35;3.08;;;2.35;;
47113;SDS011;32867;51.556;6.832;2023-08-06T04:00:36;4.35;;;2.67;;
47113;SDS011;32867;51.556;6.832;2023-08-06T04:05:36;4.28;;;2.72;;
47113;SDS011;32867;51.556;6.832;2023-08-06T04:10:37;3.85;;;2.40;;
47113;SDS011;32867;51.556;6.832;2023-08-06T04:15:38;3.67;;;2.25;;
47113;SDS011;32867;51.556;6.832;2023-08-06T04:20:46;3.70;;;2.30;;
47113;SDS011;32867;51.556;6.832;2023-08-06T04:25:47;2.95;;;2.20;;
47113;SDS011;32867;51.556;6.832;2023-08-06T04:30:48;3.80;;;2.30;;
47113;SDS011;32867;51.556;6.832;2023-08-06T04:35:53;3.72;;;2.42;;
47113;SDS011;32867;51.556;6.832;2023-08-06T04:40:57;4.00;;;2.30;;
47113;SDS011;32867;51.556;6.832;2023-08-06T04:45:59;4.68;;;2.30;;
47113;SDS011;32867;51.556;6.832;2023-08-06T04:50:59;4.57;;;2.47;;
47113;SDS011;32867;51.556;6.832;2023-08-06T04:56:00;3.58;;;2.30;;
47113;SDS011;32867;51.556;6.832;2023-08-06T05:01:00;2.92;;;2.30;;
47113;SDS011;32867;51.556;6.832;2023-08-06T05:06:01;2.72;;;1.92;;
47113;SDS011;32867;51.556;6.832;2023-08-06T05:11:02;2.85;;;2.13;;
47113;SDS011;32867;51.556;6.832;2023-08-06T05:16:02;2.83;;;2.20;;
47113;SDS011;32867;51.556;6.832;2023-08-06T05:21:03;3.78;;;2.13;;
47113;SDS011;32867;51.556;6.832;2023-08-06T05:26:04;3.03;;;2.03;;
47113;SDS011;32867;51.556;6.832;2023-08-06T05:31:04;3.17;;;2.22;;
47113;SDS011;32867;51.556;6.832;2023-08-06T05:36:05;3.30;;;2.20;;
47113;SDS011;32867;51.556;6.832;2023-08-06T05:41:07;3.53;;;2.30;;
47113;SDS011;32867;51.556;6.832;2023-08-06T05:46:08;3.83;;;2.05;;
47113;SDS011;32867;51.556;6.832;2023-08-06T05:51:08;4.68;;;2.88;;
47113;SDS011;32867;51.556;6.832;2023-08-06T05:56:10;5.80;;;2.45;;
47113;SDS011;32867;51.556;6.832;2023-08-06T06:01:11;4.18;;;2.17;;
47113;SDS011;32867;51.556;6.832;2023-08-06T06:06:12;4.32;;;1.90;;
47113;SDS011;32867;51.556;6.832;2023-08-06T06:11:12;3.65;;;2.33;;
47113;SDS011;32867;51.556;6.832;2023-08-06T06:16:13;3.17;;;2.00;;
47113;SDS011;32867;51.556;6.832;2023-08-06T06:21:14;3.33;;;2.22;;
47113;SDS011;32867;51.556;6.832;2023-08-06T06:26:14;4.63;;;2.00;;
47113;SDS011;32867;51.556;6.832;2023-08-06T06:31:15;3.05;;;1.98;;
47113;SDS011;32867;51.556;6.832;2023-08-06T06:36:16;3.53;;;2.20;;
47113;SDS011;32867;51.556;6.832;2023-08-06T06:41:16;3.80;;;2.20;;
47113;SDS011;32867;51.556;6.832;2023-08-06T06:46:17;3.47;;;1.95;;
47113;SDS011;32867;51.556;6.832;2023-08-06T06:51:19;3.42;;;2.38;;
47113;SDS011;32867;51.556;6.832;2023-08-06T06:56:19;3.85;;;2.28;;
47113;SDS011;32867;51.556;6.832;2023-08-06T07:01:20;3.63;;;2.30;;
47113;SDS011;32867;51.556;6.832;2023-08-06T07:06:21;5.60;;;2.70;;
47113;SDS011;32867;51.556;6.832;2023-08-06T07:11:22;5.10;;;2.60;;
47113;SDS011;32867;51.556;6.832;2023-08-06T07:16:22;3.60;;;2.20;;
47113;SDS011;32867;51.556;6.832;2023-08-06T07:21:23;3.75;;;2.47;;
47113;SDS011;32867;51.556;6.832;2023-08-06T07:26:24;3.47;;;2.50;;
47113;SDS011;32867;51.556;6.832;2023-08-06T07:31:24;4.10;;;2.13;;
47113;SDS011;32867;51.556;6.832;2023-08-06T07:36:25;4.13;;;2.60;;
47113;SDS011;32867;51.556;6.832;2023-08-06T07:41:27;4.55;;;2.60;;
47113;SDS011;32867;51.556;6.832;2023-08-06T07:46:28;7.22;;;2.97;;
47113;SDS011;32867;51.556;6.832;2023-08-06T07:51:29;4.85;;;2.42;;
47113;SDS011;32867;51.556;6.832;2023-08-06T07:56:30;3.38;;;2.40;;
47113;SDS011;32867;51.556;6.832;2023-08-06T08:01:30;5.05;;;2.55;;
47113;SDS011;32867;51.556;6.832;2023-08-06T08:06:31;4.65;;;2.83;;
47113;SDS011;32867;51.556;6.832;2023-08-06T08:11:33;5.90;;;3.05;;
47113;SDS011;32867;51.556;6.832;2023-08-06T08:16:33;5.90;;;2.42;;
47113;SDS011;32867;51.556;6.832;2023-08-06T08:21:34;6.15;;;2.70;;
47113;SDS011;32867;51.556;6.832;2023-08-06T08:26:36;4.88;;;3.42;;
47113;SDS011;32867;51.556;6.832;2023-08-06T08:31:37;7.00;;;3.70;;
47113;SDS011;32867;51.556;6.832;2023-08-06T08:36:39;5.10;;;3.28;;
47113;SDS011;32867;51.556;6.832;2023-08-06T08:41:40;7.35;;;4.70;;
47113;SDS011;32867;51.556;6.832;2023-08-06T08:46:42;6.95;;;4.20;;
47113;SDS011;32867;51.556;6.832;2023-08-06T08:51:44;6.93;;;4.03;;
47113;SDS011;32867;51.556;6.832;2023-08-06T08:56:45;5.82;;;3.30;;
47113;SDS011;32867;51.556;6.832;2023-08-06T09:01:46;8.73;;;4.47;;
47113;SDS011;32867;51.556;6.832;2023-08-06T09:06:52;6.07;;;3.10;;
47113;SDS011;32867;51.556;6.832;2023-08-06T09:11:55;6.68;;;4.20;;
47113;SDS011;32867;51.556;6.832;2023-08-06T09:17:02;10.50;;;4.20;;
47113;SDS011;32867;51.556;6.832;2023-08-06T09:22:04;8.82;;;5.40;;
47113;SDS011;32867;51.556;6.832;2023-08-06T09:27:14;7.88;;;5.72;;
47113;SDS011;32867;51.556;6.832;2023-08-06T09:32:15;7.70;;;5.10;;
47113;SDS011;32867;51.556;6.832;2023-08-06T09:37:15;8.02;;;4.97;;
47113;SDS011;32867;51.556;6.832;2023-08-06T09:42:16;8.73;;;5.90;;
47113;SDS011;32867;51.556;6.832;2023-08-06T09:47:17;11.15;;;6.95;;
47113;SDS011;32867;51.556;6.832;2023-08-06T09:52:18;6.40;;;4.28;;
47113;SDS011;32867;51.556;6.832;2023-08-06T09:57:19;8.05;;;5.35;;
47113;SDS011;32867;51.556;6.832;2023-08-06T10:02:20;6.53;;;4.57;;
47113;SDS011;32867;51.556;6.832;2023-08-06T10:07:26;6.57;;;4.50;;
47113;SDS011;32867;51.556;6.832;2023-08-06T10:12:29;8.18;;;5.47;;
47113;SDS011;32867;51.556;6.832;2023-08-06T10:17:54;8.43;;;7.05;;
47113;SDS011;32867;51.556;6.832;2023-08-06T10:23:04;10.82;;;8.45;;
47113;SDS011;32867;51.556;6.832;2023-08-06T10:28:07;11.82;;;10.63;;
47113;SDS011;32867;51.556;6.832;2023-08-06T10:33:13;11.98;;;10.77;;
47113;SDS011;32867;51.556;6.832;2023-08-06T10:43:31;11.30;;;10.23;;
47113;SDS011;32867;51.556;6.832;2023-08-06T10:48:33;12.95;;;11.25;;
47113;SDS011;32867;51.556;6.832;2023-08-06T10:59:05;15.88;;;10.45;;
47113;SDS011;32867;51.556;6.832;2023-08-06T11:04:07;9.05;;;7.75;;
47113;SDS011;32867;51.556;6.832;2023-08-06T11:09:08;8.82;;;8.02;;
47113;SDS011;32867;51.556;6.832;2023-08-06T11:14:14;11.82;;;9.07;;
47113;SDS011;32867;51.556;6.832;2023-08-06T11:19:15;14.07;;;10.63;;
47113;SDS011;32867;51.556;6.832;2023-08-06T11:24:18;5.82;;;3.92;;
47113;SDS011;32867;51.556;6.832;2023-08-06T11:29:18;3.83;;;2.55;;
47113;SDS011;32867;51.556;6.832;2023-08-06T11:34:19;4.32;;;2.10;;
47113;SDS011;32867;51.556;6.832;2023-08-06T11:39:20;3.67;;;2.40;;
47113;SDS011;32867;51.556;6.832;2023-08-06T11:44:21;3.92;;;2.53;;
47113;SDS011;32867;51.556;6.832;2023-08-06T12:00:11;3.78;;;2.10;;
47113;SDS011;32867;51.556;6.832;2023-08-06T12:05:13;1.92;;;1.45;;
47113;SDS011;32867;51.556;6.832;2023-08-06T12:10:15;1.50;;;1.08;;
47113;SDS011;32867;51.556;6.832;2023-08-06T12:15:17;1.20;;;0.82;;
47113;SDS011;32867;51.556;6.832;2023-08-06T12:20:18;1.27;;;0.82;;
47113;SDS011;32867;51.556;6.832;2023-08-06T12:25:19;1.02;;;0.90;;
47113;SDS011;32867;51.556;6.832;2023-08-06T12:30:19;0.80;;;0.80;;
47113;SDS011;32867;51.556;6.832;2023-08-06T12:35:20;3.10;;;0.93;;
47113;SDS011;32867;51.556;6.832;2023-08-06T12:40:20;0.70;;;0.70;;
47113;SDS011;32867;51.556;6.832;2023-08-06T12:45:21;0.75;;;0.75;;
47113;SDS011;32867;51.556;6.832;2023-08-06T12:50:22;1.48;;;1.00;;
47113;SDS011;32867;51.556;6.832;2023-08-06T12:55:23;2.25;;;1.20;;
47113;SDS011;32867;51.556;6.832;2023-08-06T13:00:24;1.40;;;1.23;;
47113;SDS011;32867;51.556;6.832;2023-08-06T13:05:27;2.22;;;1.40;;
47113;SDS011;32867;51.556;6.832;2023-08-06T13:10:28;3.60;;;1.63;;
47113;SDS011;32867;51.556;6.832;2023-08-06T13:15:29;3.13;;;1.80;;
47113;SDS011;32867;51.556;6.832;2023-08-06T13:20:30;3.03;;;1.92;;
47113;SDS011;32867;51.556;6.832;2023-08-06T13:25:31;2.95;;;2.10;;
47113;SDS011;32867;51.556;6.832;2023-08-06T13:30:36;3.95;;;2.60;;
47113;SDS011;32867;51.556;6.832;2023-08-06T13:35:41;4.20;;;3.00;;
47113;SDS011;32867;51.556;6.832;2023-08-06T13:40:42;5.13;;;2.88;;
47113;SDS011;32867;51.556;6.832;2023-08-06T13:45:44;4.85;;;3.20;;
47113;SDS011;32867;51.556;6.832;2023-08-06T13:50:45;3.78;;;2.60;;
47113;SDS011;32867;51.556;6.832;2023-08-06T13:55:45;4.88;;;2.78;;
47113;SDS011;32867;51.556;6.832;2023-08-06T14:00:46;3.83;;;2.50;;
47113;SDS011;32867;51.556;6.832;2023-08-06T14:05:47;5.35;;;3.05;;
47113;SDS011;32867;51.556;6.832;2023-08-06T14:10:48;5.10;;;3.33;;
47113;SDS011;32867;51.556;6.832;2023-08-06T14:15:49;4.70;;;2.90;;
47113;SDS011;32867;51.556;6.832;2023-08-06T14:20:50;4.45;;;3.17;;
47113;SDS011;32867;51.556;6.832;2023-08-06T14:25:51;6.60;;;3.22;;
47113;SDS011;32867;51.556;6.832;2023-08-06T14:30:51;5.50;;;3.08;;
47113;SDS011;32867;51.556;6.832;2023-08-06T14:35:52;6.47;;;3.55;;
47113;SDS011;32867;51.556;6.832;2023-08-06T14:40:53;4.38;;;3.17;;
47113;SDS011;32867;51.556;6.832;2023-08-06T14:45:54;5.40;;;3.30;;
47113;SDS011;32867;51.556;6.832;2023-08-06T14:50:54;4.90;;;2.85;;
47113;SDS011;32867;51.556;6.832;2023-08-06T14:55:55;5.28;;;3.08;;
47113;SDS011;32867;51.556;6.832;2023-08-06T15:00:55;4.72;;;2.95;;
47113;SDS011;32867;51.556;6.832;2023-08-06T15:05:56;6.55;;;3.00;;
47113;SDS011;32867;51.556;6.832;2023-08-06T15:10:58;5.32;;;2.90;;
47113;SDS011;32867;51.556;6.832;2023-08-06T15:16:02;6.15;;;3.08;;
47113;SDS011;32867;51.556;6.832;2023-08-06T15:21:02;3.55;;;2.35;;
47113;SDS011;32867;51.556;6.832;2023-08-06T15:26:03;4.55;;;2.47;;
47113;SDS011;32867;51.556;6.832;2023-08-06T15:31:04;4.30;;;2.60;;
47113;SDS011;32867;51.556;6.832;2023-08-06T15:36:08;7.10;;;2.20;;
47113;SDS011;32867;51.556;6.832;2023-08-06T15:41:08;3.55;;;2.10;;
47113;SDS011;32867;51.556;6.832;2023-08-06T15:46:09;3.47;;;2.13;;
47113;SDS011;32867;51.556;6.832;2023-08-06T15:51:10;4.57;;;2.25;;
47113;SDS011;32867;51.556;6.832;2023-08-06T15:56:10;4.93;;;2.05;;
47113;SDS011;32867;51.556;6.832;2023-08-06T16:01:11;4.43;;;1.92;;
47113;SDS011;32867;51.556;6.832;2023-08-06T16:06:14;3.38;;;2.22;;
47113;SDS011;32867;51.556;6.832;2023-08-06T16:11:14;2.88;;;2.05;;
47113;SDS011;32867;51.556;6.832;2023-08-06T16:16:15;6.50;;;2.33;;
47113;SDS011;32867;51.556;6.832;2023-08-06T16:21:16;4.22;;;2.10;;
47113;SDS011;32867;51.556;6.832;2023-08-06T16:26:16;4.18;;;2.20;;
47113;SDS011;32867;51.556;6.832;2023-08-06T16:31:18;3.38;;;1.90;;
47113;SDS011;32867;51.556;6.832;2023-08-06T16:36:20;4.03;;;2.63;;
47113;SDS011;32867;51.556;6.832;2023-08-06T16:41:21;5.45;;;2.47;;
47113;SDS011;32867;51.556;6.832;2023-08-06T16:46:22;5.18;;;2.95;;
47113;SDS011;32867;51.556;6.832;2023-08-06T16:51:24;6.47;;;3.38;;
47113;SDS011;32867;51.556;6.832;2023-08-06T16:56:25;5.07;;;3.58;;
47113;SDS011;32867;51.556;6.832;2023-08-06T17:01:25;5.53;;;3.40;;
47113;SDS011;32867;51.556;6.832;2023-08-06T17:06:26;4.68;;;3.03;;
47113;SDS011;32867;51.556;6.832;2023-08-06T17:11:29;6.05;;;3.75;;
47113;SDS011;32867;51.556;6.832;2023-08-06T17:16:31;6.65;;;4.25;;
47113;SDS011;32867;51.556;6.832;2023-08-06T17:21:35;7.95;;;4.45;;
47113;SDS011;32867;51.556;6.832;2023-08-06T17:26:37;5.82;;;3.90;;
47113;SDS011;32867;51.556;6.832;2023-08-06T17:31:37;10.05;;;4.75;;
47113;SDS011;32867;51.556;6.832;2023-08-06T17:36:40;9.48;;;5.15;;
47113;SDS011;32867;51.556;6.832;2023-08-06T17:41:42;7.10;;;4.18;;
47113;SDS011;32867;51.556;6.832;2023-08-06T17:46:43;6.72;;;3.65;;
47113;SDS011;32867;51.556;6.832;2023-08-06T17:51:47;6.60;;;3.38;;
47113;SDS011;32867;51.556;6.832;2023-08-06T17:56:47;6.72;;;2.80;;
47113;SDS011;32867;51.556;6.832;2023-08-06T18:01:48;4.90;;;1.80;;
47113;SDS011;32867;51.556;6.832;2023-08-06T18:06:54;4.60;;;1.60;;
47113;SDS011;32867;51.556;6.832;2023-08-06T18:11:54;4.50;;;1.50;;
47113;SDS011;32867;51.556;6.832;2023-08-06T18:16:55;3.25;;;1.38;;
47113;SDS011;32867;51.556;6.832;2023-08-06T18:21:56;6.50;;;1.40;;
47113;SDS011;32867;51.556;6.832;2023-08-06T18:27:17;6.97;;;1.77;;
47113;SDS011;32867;51.556;6.832;2023-08-06T18:32:20;8.60;;;2.05;;
47113;SDS011;32867;51.556;6.832;2023-08-06T18:37:21;8.13;;;2.40;;
47113;SDS011;32867;51.556;6.832;2023-08-06T18:42:23;8.57;;;1.90;;
47113;SDS011;32867;51.556;6.832;2023-08-06T18:47:27;8.63;;;1.60;;
47113;SDS011;32867;51.556;6.832;2023-08-06T18:52:28;5.88;;;1.67;;
47113;SDS011;32867;51.556;6.832;2023-08-06T18:57:29;9.15;;;2.50;;
47113;SDS011;32867;51.556;6.832;2023-08-06T19:02:31;8.25;;;1.95;;
47113;SDS011;32867;51.556;6.832;2023-08-06T19:07:32;7.70;;;1.85;;
47113;SDS011;32867;51.556;6.832;2023-08-06T19:12:36;6.50;;;1.80;;
47113;SDS011;32867;51.556;6.832;2023-08-06T19:17:42;5.90;;;1.70;;
47113;SDS011;32867;51.556;6.832;2023-08-06T19:22:43;10.88;;;2.20;;
47113;SDS011;32867;51.556;6.832;2023-08-06T19:27:44;8.25;;;2.00;;
47113;SDS011;32867;51.556;6.832;2023-08-06T19:32:46;7.53;;;1.95;;
47113;SDS011;32867;51.556;6.832;2023-08-06T19:37:48;7.18;;;1.60;;
47113;SDS011;32867;51.556;6.832;2023-08-06T19:42:48;9.07;;;1.83;;
47113;SDS011;32867;51.556;6.832;2023-08-06T19:47:49;8.77;;;2.22;;
47113;SDS011;32867;51.556;6.832;2023-08-06T19:52:51;9.10;;;1.95;;
47113;SDS011;32867;51.556;6.832;2023-08-06T19:57:57;6.68;;;2.00;;
47113;SDS011;32867;51.556;6.832;2023-08-06T20:03:00;11.30;;;2.00;;
47113;SDS011;32867;51.556;6.832;2023-08-06T20:08:01;11.50;;;2.30;;
47113;SDS011;32867;51.556;6.832;2023-08-06T20:13:02;10.00;;;2.40;;
47113;SDS011;32867;51.556;6.832;2023-08-06T20:18:03;9.57;;;2.78;;
47113;SDS011;32867;51.556;6.832;2023-08-06T20:23:04;7.85;;;2.15;;
47113;SDS011;32867;51.556;6.832;2023-08-06T20:28:05;10.35;;;2.40;;
47113;SDS011;32867;51.556;6.832;2023-08-06T20:33:05;10.65;;;2.55;;
47113;SDS011;32867;51.556;6.832;2023-08-06T20:38:07;13.00;;;2.47;;
47113;SDS011;32867;51.556;6.832;2023-08-06T20:43:09;9.25;;;2.03;;
47113;SDS011;32867;51.556;6.832;2023-08-06T20:48:10;12.27;;;2.60;;
47113;SDS011;32867;51.556;6.832;2023-08-06T20:53:11;12.40;;;3.05;;
47113;SDS011;32867;51.556;6.832;2023-08-06T20:58:12;14.75;;;2.55;;
47113;SDS011;32867;51.556;6.832;2023-08-06T21:03:12;7.93;;;2.20;;
47113;SDS011;32867;51.556;6.832;2023-08-06T21:08:13;7.78;;;1.83;;
47113;SDS011;32867;51.556;6.832;2023-08-06T21:13:14;8.30;;;2.15;;
47113;SDS011;32867;51.556;6.832;2023-08-06T21:18:14;6.00;;;2.10;;
47113;SDS011;32867;51.556;6.832;2023-08-06T21:23:15;10.75;;;2.53;;
47113;SDS011;32867;51.556;6.832;2023-08-06T21:28:17;9.73;;;2.45;;
47113;SDS011;32867;51.556;6.832;2023-08-06T21:33:18;10.65;;;3.20;;
47113;SDS011;32867;51.556;6.832;2023-08-06T21:38:18;7.10;;;3.42;;
47113;SDS011;32867;51.556;6.832;2023-08-06T21:43:19;9.73;;;4.03;;
47113;SDS011;32867;51.556;6.832;2023-08-06T21:48:20;9.25;;;3.67;;
47113;SDS011;32867;51.556;6.832;2023-08-06T21:53:22;9.63;;;3.65;;
47113;SDS011;32867;51.556;6.832;2023-08-06T21:58:23;11.32;;;3.58;;
47113;SDS011;32867;51.556;6.832;2023-08-06T22:03:24;12.18;;;4.60;;
47113;SDS011;32867;51.556;6.832;2023-08-06T22:08:25;11.38;;;5.80;;
47113;SDS011;32867;51.556;6.832;2023-08-06T22:13:26;13.25;;;5.45;;
47113;SDS011;32867;51.556;6.832;2023-08-06T22:18:27;12.45;;;5.57;;
47113;SDS011;32867;51.556;6.832;2023-08-06T22:23:27;12.85;;;6.00;;
47113;SDS011;32867;51.556;6.832;2023-08-06T22:28:29;13.40;;;6.10;;
47113;SDS011;32867;51.556;6.832;2023-08-06T22:33:30;13.20;;;5.90;;
47113;SDS011;32867;51.556;6.832;2023-08-06T22:38:31;12.18;;;3.88;;
47113;SDS011;32867;51.556;6.832;2023-08-06T22:43:32;11.63;;;4.40;;
47113;SDS011;32867;51.556;6.832;2023-08-06T22:48:33;16.90;;;4.63;;
47113;SDS011;32867;51.556;6.832;2023-08-06T22:53:34;14.95;;;4.10;;
47113;SDS011;32867;51.556;6.832;2023-08-06T22:58:35;17.13;;;4.00;;
47113;SDS011;32867;51.556;6.832;2023-08-06T23:03:37;13.80;;;4.70;;
47113;SDS011;32867;51.556;6.832;2023-08-06T23:08:38;14.35;;;5.28;;
47113;SDS011;32867;51.556;6.832;2023-08-06T23:13:38;14.27;;;5.07;;
47113;SDS011;32867;51.556;6.832;2023-08-06T23:18:41;10.73;;;5.03;;
47113;SDS011;32867;51.556;6.832;2023-08-06T23:23:42;15.05;;;5.97;;
47113;SDS011;32867;51.556;6.832;2023-08-06T23:28:43;16.08;;;7.00;;
47113;SDS011;32867;51.556;6.832;2023-08-06T23:33:45;18.08;;;7.38;;
47113;SDS011;32867;51.556;6.832;2023-08-06T23:38:47;11.55;;;5.80;;
47113;SDS011;32867;51.556;6.832;2023-08-06T23:43:49;8.57;;;4.00;;
47113;SDS011;32867;51.556;6.832;2023-08-06T23:48:52;9.60;;;3.50;;
47113;SDS011;32867;51.556;6.832;2023-08-06T23:53:53;9.57;;;3.92;;
47113;SDS011;32867;51.556;6.832;2023-08-06T23:58:53;8.48;;;4.10;;
